Time;durP1;ratioP1;P1;durP2;ratioP2;P2;SDS_P1;SDS_P2;PMS_P1;PMS_P2;Temp;Humidity;BMP_temperature;BMP_pressure;BME280_temperature;BME280_humidity;BME280_pressure;Samples;Min_cycle;Max_cycle;Signal;HPM_P1;HPM_P2
2022/04/06 00:02:24;;;;;;;;;;;;;;;;;;5053536;28;869;-61
2022/04/06 00:04:49;;;;;;;;;;;;;;;;;;5053528;28;771;-60
2022/04/06 00:07:15;;;;;;;;;;;;;;;;;;5053711;28;829;-60
2022/04/06 00:09:41;;;;;;;;;;;;;;;;;;5035061;28;1208;-60
2022/04/06 00:12:07;;;;;;;;;;;;;;;;;;5053280;28;856;-60
2022/04/06 00:14:33;;;;;;;;;;;;;;;;;;5053062;28;1173;-60
2022/04/06 00:17:03;;;;;;;;;;;;;;;;;;5053206;28;1949;-60
2022/04/06 00:19:30;;;;;;;;;;;;;;;;;;5053527;28;853;-59
2022/04/06 00:21:55;;;;;;;;;;;;;;;;;;5035894;28;852;-60
2022/04/06 00:24:20;;;;;;;;;;;;;;;;;;5053658;28;895;-60
2022/04/06 00:26:46;;;;;;;;;;;;;;;;;;5053504;28;809;-60
2022/04/06 00:29:11;;;;;;;;;;;;;;;;;;5053107;28;856;-60
2022/04/06 00:31:36;;;;;;;;;;;;;;;;;;5052928;28;849;-60
2022/04/06 00:34:02;;;;;;;;;;;;;;;;;;5053590;28;805;-60
2022/04/06 00:36:27;;;;;;;;;;;;;;;;;;5052889;28;1967;-59
2022/04/06 00:38:52;;;;;;;;;;;;;;;;;;5035007;28;1074;-60
2022/04/06 00:41:18;;;;;;;;;;;;;;;;;;5052803;28;856;-60
2022/04/06 00:43:43;;;;;;;;;;;;;;;;;;5052511;28;1113;-60
2022/04/06 00:46:08;;;;;;;;;;;;;;;;;;5053194;28;794;-60
2022/04/06 00:48:33;;;;;;;;;;;;;;;;;;5044290;28;825;-60
2022/04/06 00:50:59;;;;;;;;;;;;;;;;;;5033978;28;829;-60
2022/04/06 00:53:24;;;;;;;;;;;;;;;;;;5052793;28;927;-59
2022/04/06 00:55:50;;;;;;;;;;;;;;;;;;5034653;28;1902;-60
2022/04/06 00:58:15;;;;;;;;;;;;;;;;;;5052672;28;766;-59
2022/04/06 01:00:40;;;;;;;;;;;;;;;;;;5034208;28;711;-60
2022/04/06 01:03:05;;;;;;;;;;;;;;;;;;5053044;28;896;-60
2022/04/06 01:05:31;;;;;;;;;;;;;;;;;;5052509;28;848;-59
2022/04/06 01:07:59;;;;;;;;;;;;;;;;;;5052583;28;836;-59
2022/04/06 01:10:24;;;;;;;;;;;;;;;;;;5052806;28;884;-60
2022/04/06 01:12:50;;;;;;;;;;;;;;;;;;5052511;28;885;-60
2022/04/06 01:15:16;;;;;;;;;;;;;;;;;;5052027;28;1046;-60
2022/04/06 01:17:42;;;;;;;;;;;;;;;;;;5052056;28;1910;-60
2022/04/06 01:20:08;;;;;;;;;;;;;;;;;;5052604;28;860;-60
2022/04/06 01:22:34;;;;;;;;;;;;;;;;;;5044034;28;877;-59
2022/04/06 01:25:00;;;;;;;;;;;;;;;;;;5051868;28;833;-60
2022/04/06 01:27:26;;;;;;;;;;;;;;;;;;5051913;28;978;-59
2022/04/06 01:29:52;;;;;;;;;;;;;;;;;;5051922;28;844;-59
2022/04/06 01:32:27;;;;;;;;;;;;;;;;;;5051648;28;838;-60
2022/04/06 01:34:54;;;;;;;;;;;;;;;;;;5051834;28;854;-59
2022/04/06 01:37:20;;;;;;;;;;;;;;;;;;5051550;28;1965;-60
2022/04/06 01:39:46;;;;;;;;;;;;;;;;;;5051692;28;916;-60
2022/04/06 01:42:14;;;;;;;;;;;;;;;;;;5051829;28;667;-59
2022/04/06 01:44:40;;;;;;;;;;;;;;;;;;5051417;28;619;-59
2022/04/06 01:47:06;;;;;;;;;;;;;;;;;;5051852;28;877;-60
2022/04/06 01:52:16;;;;;;;;;;;;;;;;;;5051955;28;631;-60
2022/04/06 01:54:49;;;;;;;;;;;;;;;;;;5051910;28;857;-60
2022/04/06 01:57:16;;;;;;;;;;;;;;;;;;5051087;28;1894;-59
2022/04/06 01:59:41;;;;;;;;;;;;;;;;;;5051494;28;837;-59
2022/04/06 02:02:07;;;;;;;;;;;;;;;;;;5033520;28;1733;-60
2022/04/06 02:04:32;;;;;;;;;;;;;;;;;;5051252;28;909;-60
2022/04/06 02:06:58;;;;;;;;;;;;;;;;;;5051436;28;896;-60
2022/04/06 02:09:23;;;;;;;;;;;;;;;;;;5051280;28;833;-59
2022/04/06 02:11:49;;;;;;;;;;;;;;;;;;5050958;28;836;-60
2022/04/06 02:14:14;;;;;;;;;;;;;;;;;;5051506;28;778;-60
2022/04/06 02:16:40;;;;;;;;;;;;;;;;;;5050817;28;1906;-60
2022/04/06 02:19:05;;;;;;;;;;;;;;;;;;5033260;28;1093;-60
2022/04/06 02:21:31;;;;;;;;;;;;;;;;;;5050779;28;896;-59
2022/04/06 02:23:57;;;;;;;;;;;;;;;;;;5050627;28;770;-60
2022/04/06 02:26:22;;;;;;;;;;;;;;;;;;5051156;28;770;-59
2022/04/06 02:28:47;;;;;;;;;;;;;;;;;;5051174;28;829;-59
2022/04/06 02:31:12;;;;;;;;;;;;;;;;;;5033433;28;881;-60
2022/04/06 02:33:38;;;;;;;;;;;;;;;;;;5033477;28;986;-60
2022/04/06 02:36:03;;;;;;;;;;;;;;;;;;5051285;28;1898;-60
2022/04/06 02:38:29;;;;;;;;;;;;;;;;;;5051513;28;853;-60
2022/04/06 02:40:54;;;;;;;;;;;;;;;;;;5051069;28;892;-60
2022/04/06 02:43:20;;;;;;;;;;;;;;;;;;5051282;28;1051;-60
2022/04/06 02:45:45;;;;;;;;;;;;;;;;;;5051358;28;833;-59
2022/04/06 02:48:10;;;;;;;;;;;;;;;;;;5050814;28;892;-59
2022/04/06 02:50:35;;;;;;;;;;;;;;;;;;5051042;28;826;-60
2022/04/06 02:53:01;;;;;;;;;;;;;;;;;;5050963;28;904;-60
2022/04/06 02:55:26;;;;;;;;;;;;;;;;;;5050915;28;829;-59
2022/04/06 02:57:52;;;;;;;;;;;;;;;;;;5050643;28;1922;-59
2022/04/06 03:00:18;;;;;;;;;;;;;;;;;;5050789;28;825;-59
2022/04/06 03:02:44;;;;;;;;;;;;;;;;;;5050994;28;926;-60
2022/04/06 03:05:09;;;;;;;;;;;;;;;;;;5050582;28;845;-59
2022/04/06 03:07:34;;;;;;;;;;;;;;;;;;5050426;28;810;-60
2022/04/06 03:10:00;;;;;;;;;;;;;;;;;;5050564;28;814;-59
2022/04/06 03:12:26;;;;;;;;;;;;;;;;;;5050642;28;1096;-60
2022/04/06 03:14:51;;;;;;;;;;;;;;;;;;5052100;28;1086;-59
2022/04/06 03:17:16;;;;;;;;;;;;;;;;;;5054186;28;1978;-59
2022/04/06 03:19:42;;;;;;;;;;;;;;;;;;5036307;28;1360;-60
2022/04/06 03:22:07;;;;;;;;;;;;;;;;;;5053805;28;899;-60
2022/04/06 03:24:33;;;;;;;;;;;;;;;;;;5053937;28;950;-59
2022/04/06 03:26:58;;;;;;;;;;;;;;;;;;5053833;28;884;-59
2022/04/06 03:29:23;;;;;;;;;;;;;;;;;;5054293;28;1007;-60
2022/04/06 03:31:49;;;;;;;;;;;;;;;;;;5054075;28;854;-59
2022/04/06 03:34:14;;;;;;;;;;;;;;;;;;5054622;28;915;-59
2022/04/06 03:36:39;;;;;;;;;;;;;;;;;;5054297;28;1973;-60
2022/04/06 03:39:04;;;;;;;;;;;;;;;;;;5054026;28;1015;-59
2022/04/06 03:41:30;;;;;;;;;;;;;;;;;;5053808;28;975;-59
2022/04/06 03:43:55;;;;;;;;;;;;;;;;;;5036080;28;1043;-59
2022/04/06 03:46:21;;;;;;;;;;;;;;;;;;5054194;28;1101;-59
2022/04/06 03:48:46;;;;;;;;;;;;;;;;;;5054375;28;909;-59
2022/04/06 03:51:11;;;;;;;;;;;;;;;;;;5053687;28;822;-59
2022/04/06 03:53:37;;;;;;;;;;;;;;;;;;5053997;28;947;-60
2022/04/06 03:56:02;;;;;;;;;;;;;;;;;;5053707;28;1898;-59
2022/04/06 03:58:29;;;;;;;;;;;;;;;;;;5053579;28;813;-60
2022/04/06 04:00:54;;;;;;;;;;;;;;;;;;5054161;28;913;-60
2022/04/06 04:03:19;;;;;;;;;;;;;;;;;;5054170;28;841;-60
2022/04/06 04:05:45;;;;;;;;;;;;;;;;;;5054218;28;781;-60
2022/04/06 04:08:10;;;;;;;;;;;;;;;;;;5036089;28;832;-60
2022/04/06 04:10:35;;;;;;;;;;;;;;;;;;5054120;28;1011;-60
2022/04/06 04:13:00;;;;;;;;;;;;;;;;;;5053727;28;1000;-60
2022/04/06 04:15:26;;;;;;;;;;;;;;;;;;5053625;28;1319;-60
2022/04/06 04:17:51;;;;;;;;;;;;;;;;;;5036426;28;1997;-60
2022/04/06 04:20:17;;;;;;;;;;;;;;;;;;5054341;28;825;-60
2022/04/06 04:22:42;;;;;;;;;;;;;;;;;;5053713;28;964;-60
2022/04/06 04:25:08;;;;;;;;;;;;;;;;;;5053572;28;884;-60
2022/04/06 04:27:33;;;;;;;;;;;;;;;;;;5053643;28;1019;-60
2022/04/06 04:29:58;;;;;;;;;;;;;;;;;;5053473;28;794;-60
2022/04/06 04:32:24;;;;;;;;;;;;;;;;;;5052975;28;880;-60
2022/04/06 04:34:49;;;;;;;;;;;;;;;;;;5034969;28;1272;-60
2022/04/06 04:37:14;;;;;;;;;;;;;;;;;;5052602;28;1910;-60
2022/04/06 04:39:39;;;;;;;;;;;;;;;;;;5053545;28;969;-60
2022/04/06 04:42:05;;;;;;;;;;;;;;;;;;5052586;28;793;-60
2022/04/06 04:44:30;;;;;;;;;;;;;;;;;;5052971;28;806;-60
2022/04/06 04:46:56;;;;;;;;;;;;;;;;;;5052928;28;976;-60
2022/04/06 04:49:21;;;;;;;;;;;;;;;;;;5052834;28;904;-60
2022/04/06 04:51:46;;;;;;;;;;;;;;;;;;5052768;28;841;-59
2022/04/06 04:54:11;;;;;;;;;;;;;;;;;;5052054;28;881;-60
2022/04/06 04:56:40;;;;;;;;;;;;;;;;;;5034884;28;1905;-60
2022/04/06 04:59:05;;;;;;;;;;;;;;;;;;5052196;28;828;-60
2022/04/06 05:01:30;;;;;;;;;;;;;;;;;;5052660;28;995;-60
2022/04/06 05:03:56;;;;;;;;;;;;;;;;;;5052170;28;770;-60
2022/04/06 05:06:21;;;;;;;;;;;;;;;;;;5034135;28;1032;-60
2022/04/06 05:08:46;;;;;;;;;;;;;;;;;;5052208;28;759;-60
2022/04/06 05:11:12;;;;;;;;;;;;;;;;;;5051859;28;934;-60
2022/04/06 05:13:37;;;;;;;;;;;;;;;;;;5051962;28;883;-60
2022/04/06 05:16:03;;;;;;;;;;;;;;;;;;5051936;28;1922;-60
2022/04/06 05:18:29;;;;;;;;;;;;;;;;;;5051676;28;799;-60
2022/04/06 05:20:55;;;;;;;;;;;;;;;;;;5051891;28;857;-59
2022/04/06 05:23:20;;;;;;;;;;;;;;;;;;5051654;28;790;-59
2022/04/06 05:25:45;;;;;;;;;;;;;;;;;;5052179;28;845;-60
2022/04/06 05:28:10;;;;;;;;;;;;;;;;;;5051742;28;897;-60
2022/04/06 05:30:38;;;;;;;;;;;;;;;;;;5033684;28;1156;-59
2022/04/06 05:33:03;;;;;;;;;;;;;;;;;;5034451;28;810;-60
2022/04/06 05:35:28;;;;;;;;;;;;;;;;;;5051807;28;865;-60
2022/04/06 05:37:57;;;;;;;;;;;;;;;;;;5051206;28;1980;-60
2022/04/06 05:40:23;;;;;;;;;;;;;;;;;;5051393;28;861;-59
2022/04/06 05:42:48;;;;;;;;;;;;;;;;;;5051642;28;1121;-60
2022/04/06 05:45:14;;;;;;;;;;;;;;;;;;5051636;28;857;-60
2022/04/06 05:47:39;;;;;;;;;;;;;;;;;;5051475;28;940;-60
2022/04/06 05:50:05;;;;;;;;;;;;;;;;;;5051488;28;965;-59
2022/04/06 05:52:31;;;;;;;;;;;;;;;;;;5051385;28;987;-60
2022/04/06 05:54:56;;;;;;;;;;;;;;;;;;5051991;28;778;-59
2022/04/06 05:57:22;;;;;;;;;;;;;;;;;;5051587;28;1902;-59
2022/04/06 05:59:47;;;;;;;;;;;;;;;;;;5052263;28;848;-60
2022/04/06 06:02:12;;;;;;;;;;;;;;;;;;5051873;28;1015;-60
2022/04/06 06:04:38;;;;;;;;;;;;;;;;;;5051391;28;841;-60
2022/04/06 06:07:05;;;;;;;;;;;;;;;;;;5051309;28;821;-60
2022/04/06 06:09:30;;;;;;;;;;;;;;;;;;5051373;28;847;-61
2022/04/06 06:11:55;;;;;;;;;;;;;;;;;;5051130;28;1050;-60
2022/04/06 06:14:21;;;;;;;;;;;;;;;;;;5051188;28;821;-59
2022/04/06 06:16:46;;;;;;;;;;;;;;;;;;5051233;28;1983;-60
2022/04/06 06:19:12;;;;;;;;;;;;;;;;;;5051324;28;782;-60
2022/04/06 06:21:37;;;;;;;;;;;;;;;;;;5032839;28;850;-59
2022/04/06 06:24:05;;;;;;;;;;;;;;;;;;5051028;28;888;-60
2022/04/06 06:26:34;;;;;;;;;;;;;;;;;;5050948;28;1062;-60
2022/04/06 06:28:59;;;;;;;;;;;;;;;;;;5051221;28;1078;-60
2022/04/06 06:31:25;;;;;;;;;;;;;;;;;;5050502;28;755;-60
2022/04/06 06:33:51;;;;;;;;;;;;;;;;;;5017264;28;1315;-60
2022/04/06 06:36:16;;;;;;;;;;;;;;;;;;5051282;28;1910;-61
2022/04/06 06:38:42;;;;;;;;;;;;;;;;;;5051218;28;999;-61
2022/04/06 06:41:07;;;;;;;;;;;;;;;;;;5051224;28;1073;-60
2022/04/06 06:43:32;;;;;;;;;;;;;;;;;;5032593;28;988;-61
2022/04/06 06:45:58;;;;;;;;;;;;;;;;;;5050956;28;876;-61
2022/04/06 06:48:23;;;;;;;;;;;;;;;;;;5051727;28;821;-60
2022/04/06 06:50:48;;;;;;;;;;;;;;;;;;5037632;28;770;-60
2022/04/06 06:53:13;;;;;;;;;;;;;;;;;;5055237;28;912;-60
2022/04/06 06:55:39;;;;;;;;;;;;;;;;;;5054942;28;766;-60
2022/04/06 06:58:04;;;;;;;;;;;;;;;;;;5055270;28;1897;-59
2022/04/06 07:00:30;;;;;;;;;;;;;;;;;;5036327;28;1272;-60
2022/04/06 07:02:55;;;;;;;;;;;;;;;;;;5036981;28;872;-60
2022/04/06 07:05:22;;;;;;;;;;;;;;;;;;5055219;28;797;-60
2022/04/06 07:07:53;;;;;;;;;;;;;;;;;;5036700;28;1335;-60
2022/04/06 07:10:19;;;;;;;;;;;;;;;;;;5054547;28;936;-60
2022/04/06 07:12:45;;;;;;;;;;;;;;;;;;5054478;28;891;-60
2022/04/06 07:15:10;;;;;;;;;;;;;;;;;;5054581;28;1228;-60
2022/04/06 07:17:35;;;;;;;;;;;;;;;;;;5036097;28;1898;-61
2022/04/06 07:20:01;;;;;;;;;;;;;;;;;;5054773;28;876;-61
2022/04/06 07:22:26;;;;;;;;;;;;;;;;;;5054312;28;849;-60
2022/04/06 07:24:51;;;;;;;;;;;;;;;;;;5054534;28;959;-60
2022/04/06 07:27:21;;;;;;;;;;;;;;;;;;5054033;28;889;-61
2022/04/06 07:29:46;;;;;;;;;;;;;;;;;;5036889;28;848;-61
2022/04/06 07:32:11;;;;;;;;;;;;;;;;;;5055076;28;1027;-60
2022/04/06 07:34:37;;;;;;;;;;;;;;;;;;5054115;28;928;-61
2022/04/06 07:37:02;;;;;;;;;;;;;;;;;;5054647;28;1973;-60
2022/04/06 07:39:27;;;;;;;;;;;;;;;;;;5053966;28;995;-60
2022/04/06 07:41:55;;;;;;;;;;;;;;;;;;5036715;28;872;-61
2022/04/06 07:44:21;;;;;;;;;;;;;;;;;;5054373;28;838;-60
2022/04/06 07:46:46;;;;;;;;;;;;;;;;;;5053945;28;821;-61
2022/04/06 07:49:11;;;;;;;;;;;;;;;;;;5054460;28;790;-61
2022/04/06 07:51:37;;;;;;;;;;;;;;;;;;5019346;28;1322;-60
2022/04/06 07:54:02;;;;;;;;;;;;;;;;;;5054696;28;762;-60
2022/04/06 07:56:28;;;;;;;;;;;;;;;;;;5035838;28;1898;-60
2022/04/06 07:58:53;;;;;;;;;;;;;;;;;;5054216;28;1039;-60
2022/04/06 08:01:18;;;;;;;;;;;;;;;;;;5053313;28;1191;-60
2022/04/06 08:03:43;;;;;;;;;;;;;;;;;;5053604;28;902;-59
2022/04/06 08:06:09;;;;;;;;;;;;;;;;;;5054188;28;837;-60
2022/04/06 08:08:34;;;;;;;;;;;;;;;;;;5053643;28;833;-60
2022/04/06 08:10:59;;;;;;;;;;;;;;;;;;5053659;28;876;-60
2022/04/06 08:13:25;;;;;;;;;;;;;;;;;;5053892;28;926;-60
2022/04/06 08:15:50;;;;;;;;;;;;;;;;;;5053386;28;1205;-61
2022/04/06 08:18:15;;;;;;;;;;;;;;;;;;5053663;28;1910;-60
2022/04/06 08:20:40;;;;;;;;;;;;;;;;;;5052967;28;793;-60
2022/04/06 08:23:06;;;;;;;;;;;;;;;;;;5053503;28;896;-60
2022/04/06 08:25:33;;;;;;;;;;;;;;;;;;5052965;28;908;-60
2022/04/06 08:27:58;;;;;;;;;;;;;;;;;;5035374;28;1467;-60
2022/04/06 08:30:24;;;;;;;;;;;;;;;;;;5053441;28;916;-60
2022/04/06 08:32:50;;;;;;;;;;;;;;;;;;5053331;28;809;-60
2022/04/06 08:35:17;;;;;;;;;;;;;;;;;;5052930;28;999;-60
2022/04/06 08:37:42;;;;;;;;;;;;;;;;;;5053020;28;1968;-60
2022/04/06 08:40:11;;;;;;;;;;;;;;;;;;5052948;28;938;-60
2022/04/06 08:42:37;;;;;;;;;;;;;;;;;;5052733;28;896;-60
2022/04/06 08:45:06;;;;;;;;;;;;;;;;;;5035155;28;1034;-60
2022/04/06 08:47:31;;;;;;;;;;;;;;;;;;5053144;28;1069;-60
2022/04/06 08:49:57;;;;;;;;;;;;;;;;;;5034551;28;908;-60
2022/04/06 08:52:22;;;;;;;;;;;;;;;;;;5052769;28;888;-60
2022/04/06 08:54:48;;;;;;;;;;;;;;;;;;5052296;28;967;-60
2022/04/06 08:57:13;;;;;;;;;;;;;;;;;;5052455;28;1902;-60
2022/04/06 08:59:38;;;;;;;;;;;;;;;;;;5033953;28;909;-59
2022/04/06 09:02:04;;;;;;;;;;;;;;;;;;5052705;28;778;-60
2022/04/06 09:04:34;;;;;;;;;;;;;;;;;;5034464;28;1003;-60
2022/04/06 09:07:06;;;;;;;;;;;;;;;;;;5033964;28;1448;-60
2022/04/06 09:09:32;;;;;;;;;;;;;;;;;;5052464;28;869;-60
2022/04/06 09:12:04;;;;;;;;;;;;;;;;;;5051237;28;869;-60
2022/04/06 09:14:30;;;;;;;;;;;;;;;;;;5033617;28;2014;-60
2022/04/06 09:17:05;;;;;;;;;;;;;;;;;;5051672;28;1950;-60
2022/04/06 09:19:31;;;;;;;;;;;;;;;;;;5052048;28;897;-60
2022/04/06 09:21:56;;;;;;;;;;;;;;;;;;5052224;28;813;-60
2022/04/06 09:24:24;;;;;;;;;;;;;;;;;;5052167;28;967;-60
2022/04/06 09:27:00;;;;;;;;;;;;;;;;;;5033814;28;1476;-59
2022/04/06 09:29:26;;;;;;;;;;;;;;;;;;5052399;28;777;-60
2022/04/06 09:31:51;;;;;;;;;;;;;;;;;;5051589;28;1275;-60
2022/04/06 09:34:27;;;;;;;;;;;;;;;;;;5093293;27;1595872;-60
2022/04/06 09:36:56;;;;;;;;;;;;;;;;;;5152503;27;1232;-60
2022/04/06 09:39:42;;;;;;;;;;;;;;;;;;5171287;27;1166;-60
2022/04/06 09:42:07;;;;;;;;;;;;;;;;;;5139525;27;1189;-59
2022/04/06 09:47:42;;;;;;;;;;;;;;;;;;5150680;27;988;-59
2022/04/06 09:50:17;;;;;;;;;;;;;;;;;;5130824;27;1210;-60
2022/04/06 09:52:43;;;;;;;;;;;;;;;;;;5148701;27;1906;-59
2022/04/06 09:55:09;;;;;;;;;;;;;;;;;;5149172;27;846;-59
2022/04/06 09:57:55;;;;;;;;;;;;;;;;;;5148691;27;959;-59
2022/04/06 10:00:22;;;;;;;;;;;;;;;;;;5149819;27;1500;-60
2022/04/06 10:02:50;;;;;;;;;;;;;;;;;;5150255;27;792;-59
2022/04/06 10:05:17;;;;;;;;;;;;;;;;;;5150329;27;1139;-60
2022/04/06 10:07:43;;;;;;;;;;;;;;;;;;5149694;27;856;-59
2022/04/06 10:10:09;;;;;;;;;;;;;;;;;;5149808;27;809;-59
2022/04/06 10:12:35;;;;;;;;;;;;;;;;;;5149175;27;1960;-60
2022/04/06 10:15:00;;;;;;;;;;;;;;;;;;5149377;27;856;-59
2022/04/06 10:17:27;;;;;;;;;;;;;;;;;;5149476;27;879;-59
2022/04/06 10:19:56;;;;;;;;;;;;;;;;;;5149331;27;947;-60
2022/04/06 10:22:31;;;;;;;;;;;;;;;;;;5148594;27;917;-60
2022/04/06 10:25:14;;;;;;;;;;;;;;;;;;5149033;27;868;-59
2022/04/06 10:27:44;;;;;;;;;;;;;;;;;;5149296;27;1119;-59
2022/04/06 10:30:22;;;;;;;;;;;;;;;;;;5130542;27;1811;-59
2022/04/06 10:32:48;;;;;;;;;;;;;;;;;;5149081;27;1898;-59
2022/04/06 10:35:40;;;;;;;;;;;;;;;;;;5148715;27;916;-59
2022/04/06 10:38:05;;;;;;;;;;;;;;;;;;5144639;27;1280;-60
2022/04/06 10:40:42;;;;;;;;;;;;;;;;;;5160951;27;1276;-60
2022/04/06 10:43:27;;;;;;;;;;;;;;;;;;5169261;27;994;-59
2022/04/06 10:45:53;;;;;;;;;;;;;;;;;;5154835;27;1130;-60
2022/04/06 10:48:18;;;;;;;;;;;;;;;;;;5136872;27;1308;-60
2022/04/06 10:50:44;;;;;;;;;;;;;;;;;;5155566;27;872;-59
2022/04/06 10:53:19;;;;;;;;;;;;;;;;;;5155476;27;1905;-59
2022/04/06 10:56:05;;;;;;;;;;;;;;;;;;5155296;27;1173;-59
2022/04/06 10:58:49;;;;;;;;;;;;;;;;;;5155329;27;850;-60
2022/04/06 11:01:15;;;;;;;;;;;;;;;;;;5155271;27;1177;-59
2022/04/06 11:03:44;;;;;;;;;;;;;;;;;;5153894;27;827;-59
2022/04/06 11:06:10;;;;;;;;;;;;;;;;;;5154402;27;887;-59
2022/04/06 11:11:46;;;;;;;;;;;;;;;;;;5155429;27;777;-59
2022/04/06 11:14:12;;;;;;;;;;;;;;;;;;5155079;27;1963;-59
2022/04/06 11:16:42;;;;;;;;;;;;;;;;;;5154839;27;846;-59
2022/04/06 11:19:07;;;;;;;;;;;;;;;;;;5155299;27;837;-59
2022/04/06 11:21:32;;;;;;;;;;;;;;;;;;5155164;27;982;-59
2022/04/06 11:23:57;;;;;;;;;;;;;;;;;;5154951;27;815;-59
2022/04/06 11:26:23;;;;;;;;;;;;;;;;;;5155663;27;958;-59
2022/04/06 11:28:56;;;;;;;;;;;;;;;;;;5154641;27;990;-59
2022/04/06 11:31:21;;;;;;;;;;;;;;;;;;5155440;27;899;-59
2022/04/06 11:33:46;;;;;;;;;;;;;;;;;;5154707;27;1893;-60
2022/04/06 11:36:12;;;;;;;;;;;;;;;;;;5154538;27;892;-59
2022/04/06 11:38:38;;;;;;;;;;;;;;;;;;5155045;27;827;-59
2022/04/06 11:41:03;;;;;;;;;;;;;;;;;;5154849;27;914;-59
2022/04/06 11:43:28;;;;;;;;;;;;;;;;;;5154779;27;981;-59
2022/04/06 11:45:57;;;;;;;;;;;;;;;;;;5155109;27;800;-59
2022/04/06 11:48:22;;;;;;;;;;;;;;;;;;5154958;27;815;-59
2022/04/06 11:50:49;;;;;;;;;;;;;;;;;;5154671;27;867;-59
2022/04/06 11:53:22;;;;;;;;;;;;;;;;;;5154166;27;1937;-59
2022/04/06 11:55:49;;;;;;;;;;;;;;;;;;5153201;27;808;-59
2022/04/06 11:58:27;;;;;;;;;;;;;;;;;;5154100;27;887;-59
2022/04/06 12:00:57;;;;;;;;;;;;;;;;;;5154695;27;805;-59
2022/04/06 12:03:29;;;;;;;;;;;;;;;;;;5153962;27;943;-59
2022/04/06 12:05:54;;;;;;;;;;;;;;;;;;5154142;27;847;-58
2022/04/06 12:08:19;;;;;;;;;;;;;;;;;;5153991;27;948;-59
2022/04/06 12:10:51;;;;;;;;;;;;;;;;;;5154366;27;911;-59
2022/04/06 12:13:18;;;;;;;;;;;;;;;;;;5153730;27;1893;-59
2022/04/06 12:15:44;;;;;;;;;;;;;;;;;;5153452;27;824;-59
2022/04/06 12:18:09;;;;;;;;;;;;;;;;;;5135126;27;891;-59
2022/04/06 12:20:35;;;;;;;;;;;;;;;;;;5153445;27;903;-59
2022/04/06 12:23:04;;;;;;;;;;;;;;;;;;5153834;27;788;-60
2022/04/06 12:25:32;;;;;;;;;;;;;;;;;;5153830;27;883;-59
2022/04/06 12:28:10;;;;;;;;;;;;;;;;;;5153538;27;1061;-59
2022/04/06 12:30:52;;;;;;;;;;;;;;;;;;5153538;27;1668;-59
2022/04/06 12:33:39;;;;;;;;;;;;;;;;;;5134294;27;1902;-59
2022/04/06 12:36:08;;;;;;;;;;;;;;;;;;5153868;27;816;-60
2022/04/06 12:38:34;;;;;;;;;;;;;;;;;;5153109;27;846;-59
2022/04/06 12:41:07;;;;;;;;;;;;;;;;;;5153331;27;829;-60
2022/04/06 12:43:35;;;;;;;;;;;;;;;;;;5153643;27;819;-59
2022/04/06 12:46:00;;;;;;;;;;;;;;;;;;5153546;27;1010;-59
2022/04/06 12:48:26;;;;;;;;;;;;;;;;;;5153292;27;840;-59
2022/04/06 12:50:51;;;;;;;;;;;;;;;;;;5153417;27;963;-60
2022/04/06 12:53:17;;;;;;;;;;;;;;;;;;5153115;27;1910;-60
2022/04/06 12:55:42;;;;;;;;;;;;;;;;;;5153176;27;895;-59
2022/04/06 12:58:17;;;;;;;;;;;;;;;;;;5153625;27;867;-59
2022/04/06 13:00:43;;;;;;;;;;;;;;;;;;5153746;27;820;-60
2022/04/06 13:03:09;;;;;;;;;;;;;;;;;;5153697;27;1091;-60
2022/04/06 13:05:34;;;;;;;;;;;;;;;;;;5153544;27;844;-59
2022/04/06 13:08:02;;;;;;;;;;;;;;;;;;5153419;27;761;-59
2022/04/06 13:10:29;;;;;;;;;;;;;;;;;;5153841;27;1701;-59
2022/04/06 13:12:57;;;;;;;;;;;;;;;;;;5153989;27;1955;-59
2022/04/06 13:15:22;;;;;;;;;;;;;;;;;;5134876;27;1332;-59
2022/04/06 13:17:48;;;;;;;;;;;;;;;;;;5153589;27;827;-58
2022/04/06 13:20:21;;;;;;;;;;;;;;;;;;5153047;27;856;-61
2022/04/06 13:22:47;;;;;;;;;;;;;;;;;;5153567;27;1025;-58
2022/04/06 13:25:13;;;;;;;;;;;;;;;;;;5153009;27;899;-58
2022/04/06 13:27:39;;;;;;;;;;;;;;;;;;5153315;27;859;-58
2022/04/06 13:30:05;;;;;;;;;;;;;;;;;;5153268;27;969;-58
2022/04/06 13:32:30;;;;;;;;;;;;;;;;;;5152565;27;1897;-58
2022/04/06 13:34:56;;;;;;;;;;;;;;;;;;5152842;27;1154;-59
2022/04/06 13:37:21;;;;;;;;;;;;;;;;;;5152748;27;998;-58
2022/04/06 13:39:47;;;;;;;;;;;;;;;;;;5152699;27;899;-59
2022/04/06 13:42:12;;;;;;;;;;;;;;;;;;5153258;27;816;-58
2022/04/06 13:44:37;;;;;;;;;;;;;;;;;;5152513;27;891;-58
2022/04/06 13:47:04;;;;;;;;;;;;;;;;;;5134421;27;761;-60
2022/04/06 13:49:29;;;;;;;;;;;;;;;;;;5152483;27;955;-60
2022/04/06 13:51:55;;;;;;;;;;;;;;;;;;5151600;27;1205;-60
2022/04/06 13:54:21;;;;;;;;;;;;;;;;;;5150924;27;1959;-61
2022/04/06 13:56:46;;;;;;;;;;;;;;;;;;5150751;27;1221;-62
2022/04/06 13:59:12;;;;;;;;;;;;;;;;;;5151114;27;1146;-58
2022/04/06 14:01:37;;;;;;;;;;;;;;;;;;5150978;27;1222;-59
2022/04/06 14:04:03;;;;;;;;;;;;;;;;;;5151825;27;1182;-58
2022/04/06 14:06:29;;;;;;;;;;;;;;;;;;5152326;27;843;-59
2022/04/06 14:08:54;;;;;;;;;;;;;;;;;;5152472;27;980;-59
2022/04/06 14:11:20;;;;;;;;;;;;;;;;;;5152430;27;814;-59
2022/04/06 14:13:45;;;;;;;;;;;;;;;;;;5150467;27;1943;-59
2022/04/06 14:16:10;;;;;;;;;;;;;;;;;;5151726;27;1271;-59
2022/04/06 14:18:36;;;;;;;;;;;;;;;;;;5152214;27;863;-59
2022/04/06 14:21:02;;;;;;;;;;;;;;;;;;5156010;27;820;-59
2022/04/06 14:23:27;;;;;;;;;;;;;;;;;;5156389;27;793;-59
2022/04/06 14:25:53;;;;;;;;;;;;;;;;;;5156637;27;1063;-59
2022/04/06 14:28:18;;;;;;;;;;;;;;;;;;5156462;27;979;-59
2022/04/06 14:30:48;;;;;;;;;;;;;;;;;;5137470;27;1425;-59
2022/04/06 14:33:19;;;;;;;;;;;;;;;;;;5156186;27;1909;-60
2022/04/06 14:35:44;;;;;;;;;;;;;;;;;;5156627;27;1024;-59
2022/04/06 14:38:10;;;;;;;;;;;;;;;;;;5137745;27;863;-59
2022/04/06 14:40:36;;;;;;;;;;;;;;;;;;5155801;27;906;-60
2022/04/06 14:43:01;;;;;;;;;;;;;;;;;;5155894;27;931;-60
2022/04/06 14:45:27;;;;;;;;;;;;;;;;;;5156123;27;1010;-59
2022/04/06 14:47:52;;;;;;;;;;;;;;;;;;5156308;27;781;-59
2022/04/06 14:50:17;;;;;;;;;;;;;;;;;;5156065;27;864;-59
2022/04/06 14:52:43;;;;;;;;;;;;;;;;;;5156133;27;1961;-59
2022/04/06 14:55:08;;;;;;;;;;;;;;;;;;5156842;27;899;-59
2022/04/06 14:57:34;;;;;;;;;;;;;;;;;;5155990;27;867;-59
2022/04/06 14:59:59;;;;;;;;;;;;;;;;;;5157074;27;879;-59
2022/04/06 15:02:25;;;;;;;;;;;;;;;;;;5156480;27;820;-59
2022/04/06 15:04:50;;;;;;;;;;;;;;;;;;5156264;27;977;-59
2022/04/06 15:07:17;;;;;;;;;;;;;;;;;;5156045;27;840;-59
2022/04/06 15:09:45;;;;;;;;;;;;;;;;;;5154000;27;1161;-59
2022/04/06 15:12:11;;;;;;;;;;;;;;;;;;5154429;27;1964;-59
2022/04/06 15:14:36;;;;;;;;;;;;;;;;;;5134834;27;1290;-59
2022/04/06 15:17:02;;;;;;;;;;;;;;;;;;5156069;27;882;-59
2022/04/06 15:19:28;;;;;;;;;;;;;;;;;;5155690;27;1045;-59
2022/04/06 15:21:53;;;;;;;;;;;;;;;;;;5155743;27;899;-59
2022/04/06 15:24:18;;;;;;;;;;;;;;;;;;5155865;27;776;-59
2022/04/06 15:26:44;;;;;;;;;;;;;;;;;;5153262;27;1241;-60
2022/04/06 15:29:09;;;;;;;;;;;;;;;;;;5153634;27;1146;-59
2022/04/06 15:31:34;;;;;;;;;;;;;;;;;;5154901;27;894;-59
2022/04/06 15:33:59;;;;;;;;;;;;;;;;;;5154633;27;1897;-59
2022/04/06 15:39:09;;;;;;;;;;;;;;;;;;5155594;27;699;-59
2022/04/06 15:41:34;;;;;;;;;;;;;;;;;;5154596;27;978;-59
2022/04/06 15:44:00;;;;;;;;;;;;;;;;;;5155286;27;814;-60
2022/04/06 15:46:25;;;;;;;;;;;;;;;;;;5119252;27;1206;-60
2022/04/06 15:48:50;;;;;;;;;;;;;;;;;;5154791;27;918;-60
2022/04/06 15:51:16;;;;;;;;;;;;;;;;;;5155169;27;990;-59
2022/04/06 15:53:41;;;;;;;;;;;;;;;;;;5154798;27;1913;-60
2022/04/06 15:56:16;;;;;;;;;;;;;;;;;;5154334;27;887;-59
2022/04/06 15:58:41;;;;;;;;;;;;;;;;;;5153929;27;776;-59
2022/04/06 16:01:07;;;;;;;;;;;;;;;;;;5153883;27;800;-59
2022/04/06 16:03:32;;;;;;;;;;;;;;;;;;5154132;27;1083;-59
2022/04/06 16:05:57;;;;;;;;;;;;;;;;;;5154335;27;839;-59
2022/04/06 16:08:22;;;;;;;;;;;;;;;;;;5154747;27;907;-60
2022/04/06 16:10:48;;;;;;;;;;;;;;;;;;5154349;27;867;-59
2022/04/06 16:13:13;;;;;;;;;;;;;;;;;;5135561;27;1898;-59
2022/04/06 16:15:39;;;;;;;;;;;;;;;;;;5153478;27;915;-58
2022/04/06 16:18:04;;;;;;;;;;;;;;;;;;5154391;27;875;-58
2022/04/06 16:20:30;;;;;;;;;;;;;;;;;;5153408;27;911;-60
2022/04/06 16:22:55;;;;;;;;;;;;;;;;;;5153628;27;1165;-59
2022/04/06 16:25:20;;;;;;;;;;;;;;;;;;5134945;27;852;-59
2022/04/06 16:27:46;;;;;;;;;;;;;;;;;;5153364;27;832;-59
2022/04/06 16:30:12;;;;;;;;;;;;;;;;;;5153517;27;963;-59
2022/04/06 16:32:37;;;;;;;;;;;;;;;;;;5153035;27;1958;-60
2022/04/06 16:35:02;;;;;;;;;;;;;;;;;;5153541;27;1319;-59
2022/04/06 16:37:28;;;;;;;;;;;;;;;;;;5153737;27;864;-60
2022/04/06 16:39:53;;;;;;;;;;;;;;;;;;5152804;27;1204;-60
2022/04/06 16:42:18;;;;;;;;;;;;;;;;;;5153654;27;1042;-59
2022/04/06 16:44:44;;;;;;;;;;;;;;;;;;5153625;27;1002;-59
2022/04/06 16:47:12;;;;;;;;;;;;;;;;;;5153455;27;907;-60
2022/04/06 16:55:06;;;;;;;;;;;;;;;;;;5153715;27;653;-60
2022/04/06 16:57:31;;;;;;;;;;;;;;;;;;5153533;27;959;-59
2022/04/06 16:59:56;;;;;;;;;;;;;;;;;;5152843;27;1002;-60
2022/04/06 17:02:25;;;;;;;;;;;;;;;;;;5153693;27;1041;-59
2022/04/06 17:04:55;;;;;;;;;;;;;;;;;;5153161;27;802;-60
2022/04/06 17:07:21;;;;;;;;;;;;;;;;;;5134704;27;876;-59
2022/04/06 17:09:46;;;;;;;;;;;;;;;;;;5152843;27;832;-60
2022/04/06 17:12:11;;;;;;;;;;;;;;;;;;5153640;27;1046;-60
2022/04/06 17:14:36;;;;;;;;;;;;;;;;;;5153013;27;1976;-60
2022/04/06 17:17:02;;;;;;;;;;;;;;;;;;5152721;27;823;-60
2022/04/06 17:19:27;;;;;;;;;;;;;;;;;;5153002;27;1160;-60
2022/04/06 17:21:53;;;;;;;;;;;;;;;;;;5153105;27;878;-59
2022/04/06 17:24:19;;;;;;;;;;;;;;;;;;5153061;27;875;-59
2022/04/06 17:26:44;;;;;;;;;;;;;;;;;;5152955;27;899;-60
2022/04/06 17:29:09;;;;;;;;;;;;;;;;;;5153294;27;947;-59